Aviation Digital Data Service (ADDS)

Output produced by METARs form (1136 UTC 19 June 2019)
found at http://www.aviationweather.gov/metar/data/
 
TAF TTPP 191000Z 1912/2012 10015G25KT 9999 SCT018 SCT040 
     TEMPO 1912/1918 5000 SHRA/RA FEW012CB SCT015 BKN035 
     PROB40 
     TEMPO 1914/1917 VRB20G30KT 2000 TSRA FEW010CB BKN015 
     BECMG 1923/2001 09006KT FEW018 SCT040
       
TAF TTCP 191000Z 1912/2012 10015G25KT 9999 SCT018 SCT040 
     TEMPO 1912/1918 5000 SHRA/RA FEW012CB SCT015 BKN035 
     PROB40 
     TEMPO 1914/1917 VRB20G30KT 2000 TSRA FEW010CB BKN015 
     BECMG 1923/2001 09006KT FEW018 SCT040